Time;durP1;ratioP1;P1;durP2;ratioP2;P2;SDS_P1;SDS_P2;PMS_P1;PMS_P2;Temp;Humidity;BMP_temperature;BMP_pressure;BME280_temperature;BME280_humidity;BME280_pressure;Samples;Min_cycle;Max_cycle;Signal;HPM_P1;HPM_P2
2023/01/15 00:01:47;;;;;;;6.50;3.80;;;;;;;;;;780259;179;624704;-82
2023/01/15 00:04:12;;;;;;;9.20;3.87;;;;;;;;;;779457;177;627008;-79
2023/01/15 00:06:38;;;;;;;6.47;3.65;;;;;;;;;;774871;179;630668;-80
2023/01/15 00:09:04;;;;;;;6.50;3.83;;;;;;;;;;777728;177;624692;-80
2023/01/15 00:11:30;;;;;;;4.90;3.13;;;;;;;;;;778182;179;639249;-79
2023/01/15 00:13:56;;;;;;;5.00;3.47;;;;;;;;;;771775;178;1181124;-79
2023/01/15 00:16:22;;;;;;;5.47;4.57;;;;;;;;;;776195;179;1134021;-79
2023/01/15 00:18:48;;;;;;;6.00;4.00;;;;;;;;;;775941;180;645675;-78
2023/01/15 00:21:14;;;;;;;4.33;3.43;;;;;;;;;;774214;179;903660;-81
2023/01/15 00:28:44;;;;;;;6.23;3.47;;;;;;;;;;778119;180;646765;-79
2023/01/15 00:31:10;;;;;;;4.10;2.80;;;;;;;;;;776170;179;630156;-77
2023/01/15 00:33:36;;;;;;;5.10;3.50;;;;;;;;;;776407;180;615507;-80
2023/01/15 00:36:02;;;;;;;6.50;4.50;;;;;;;;;;781668;180;632260;-79
2023/01/15 00:38:27;;;;;;;4.97;3.40;;;;;;;;;;775945;177;637340;-79
2023/01/15 00:40:53;;;;;;;7.83;3.33;;;;;;;;;;776346;179;643777;-80
2023/01/15 00:43:19;;;;;;;5.53;3.17;;;;;;;;;;777788;177;620413;-78
2023/01/15 00:45:45;;;;;;;7.10;4.43;;;;;;;;;;775739;179;674271;-79
2023/01/15 00:48:11;;;;;;;7.73;3.57;;;;;;;;;;775615;178;681607;-79
2023/01/15 00:50:37;;;;;;;8.90;4.07;;;;;;;;;;778986;179;671935;-80
2023/01/15 00:53:02;;;;;;;6.77;4.40;;;;;;;;;;779255;179;635262;-78
2023/01/15 00:55:28;;;;;;;6.93;4.70;;;;;;;;;;777475;179;624131;-79
2023/01/15 00:57:54;;;;;;;7.77;4.10;;;;;;;;;;776848;179;632121;-79
2023/01/15 01:00:20;;;;;;;6.80;3.87;;;;;;;;;;781247;177;636110;-80
2023/01/15 01:02:46;;;;;;;9.77;4.33;;;;;;;;;;776439;179;626598;-79
2023/01/15 01:05:12;;;;;;;8.10;4.70;;;;;;;;;;779275;179;639740;-79
2023/01/15 01:07:37;;;;;;;5.30;3.70;;;;;;;;;;781867;180;623055;-79
2023/01/15 01:10:03;;;;;;;6.10;3.73;;;;;;;;;;774511;179;615500;-79
2023/01/15 01:12:29;;;;;;;7.90;4.47;;;;;;;;;;776048;179;745279;-79
2023/01/15 01:14:55;;;;;;;7.53;3.80;;;;;;;;;;780786;178;629490;-81
2023/01/15 01:17:21;;;;;;;11.00;3.30;;;;;;;;;;775182;179;761067;-78
2023/01/15 01:19:47;;;;;;;5.23;3.47;;;;;;;;;;774922;180;627837;-78
2023/01/15 01:22:13;;;;;;;4.70;3.13;;;;;;;;;;775376;180;633351;-78
2023/01/15 01:24:39;;;;;;;9.70;4.10;;;;;;;;;;777997;179;638883;-80
2023/01/15 01:27:04;;;;;;;8.07;3.40;;;;;;;;;;775178;179;625627;-80
2023/01/15 01:29:30;;;;;;;4.30;2.53;;;;;;;;;;777149;178;626175;-80
2023/01/15 01:31:56;;;;;;;5.70;3.80;;;;;;;;;;779822;180;628926;-80
2023/01/15 01:34:22;;;;;;;5.40;3.63;;;;;;;;;;783260;179;684642;-79
2023/01/15 01:36:48;;;;;;;6.07;3.70;;;;;;;;;;780024;180;626541;-80
2023/01/15 01:39:14;;;;;;;8.60;4.33;;;;;;;;;;777873;180;832475;-80
2023/01/15 01:41:40;;;;;;;7.07;4.20;;;;;;;;;;775155;180;629732;-79
2023/01/15 01:44:07;;;;;;;12.03;4.27;;;;;;;;;;774337;177;637199;-79
2023/01/15 01:46:32;;;;;;;6.13;3.20;;;;;;;;;;775216;180;633157;-79
2023/01/15 01:48:59;;;;;;;5.57;3.50;;;;;;;;;;780815;180;642341;-79
2023/01/15 01:51:25;;;;;;;6.73;3.83;;;;;;;;;;776188;179;637849;-79
2023/01/15 01:53:50;;;;;;;6.00;3.40;;;;;;;;;;775736;176;634576;-81
2023/01/15 01:56:17;;;;;;;5.57;2.50;;;;;;;;;;779340;180;623126;-79
2023/01/15 01:58:42;;;;;;;7.20;3.70;;;;;;;;;;776095;176;634572;-80
2023/01/15 02:01:08;;;;;;;8.77;4.03;;;;;;;;;;778399;179;625195;-78
2023/01/15 02:03:34;;;;;;;3.60;2.63;;;;;;;;;;781361;176;636637;-80
2023/01/15 02:06:00;;;;;;;6.13;4.27;;;;;;;;;;777161;178;625657;-80
2023/01/15 02:08:26;;;;;;;7.20;3.70;;;;;;;;;;775766;181;630309;-79
2023/01/15 02:10:52;;;;;;;6.65;4.10;;;;;;;;;;776281;180;676310;-79
2023/01/15 02:13:33;;;;;;;5.60;3.70;;;;;;;;;;768299;180;628742;-79
2023/01/15 02:16:02;;;;;;;4.93;3.50;;;;;;;;;;781731;180;618005;-79
2023/01/15 02:18:29;;;;;;;5.10;3.30;;;;;;;;;;767978;180;697793;-79
2023/01/15 02:20:57;;;;;;;6.77;3.33;;;;;;;;;;772541;180;662249;-79
2023/01/15 02:23:29;;;;;;;5.10;3.53;;;;;;;;;;777639;179;633931;-79
2023/01/15 02:26:10;;;;;;;3.80;2.63;;;;;;;;;;772991;182;624136;-80
2023/01/15 02:28:37;;;;;;;7.63;4.47;;;;;;;;;;778391;177;624034;-79
2023/01/15 02:31:04;;;;;;;6.77;4.57;;;;;;;;;;778027;179;632952;-80
2023/01/15 02:33:32;;;;;;;6.33;3.70;;;;;;;;;;777053;179;642468;-79
2023/01/15 02:35:59;;;;;;;7.20;4.93;;;;;;;;;;780102;179;615913;-80
2023/01/15 02:38:23;;;;;;;5.33;3.90;;;;;;;;;;777938;180;621648;-77
2023/01/15 02:40:49;;;;;;;5.90;3.63;;;;;;;;;;777461;179;624504;-79
2023/01/15 02:43:15;;;;;;;8.70;4.93;;;;;;;;;;779523;180;615297;-79
2023/01/15 02:45:41;;;;;;;9.07;4.80;;;;;;;;;;773983;178;624642;-80
2023/01/15 02:48:07;;;;;;;5.77;4.13;;;;;;;;;;774335;179;626017;-80
2023/01/15 02:50:36;;;;;;;7.10;4.60;;;;;;;;;;775393;180;626820;-79
2023/01/15 02:53:04;;;;;;;7.70;4.30;;;;;;;;;;781093;178;634858;-80
2023/01/15 02:55:28;;;;;;;8.17;5.70;;;;;;;;;;773977;180;635129;-80
2023/01/15 02:57:54;;;;;;;7.13;4.53;;;;;;;;;;774625;179;624363;-82
2023/01/15 03:00:19;;;;;;;14.00;6.47;;;;;;;;;;778293;179;648234;-82
2023/01/15 03:02:45;;;;;;;9.70;4.97;;;;;;;;;;778405;179;627833;-81
2023/01/15 03:05:11;;;;;;;7.67;4.83;;;;;;;;;;775321;180;657331;-78
2023/01/15 03:07:40;;;;;;;9.97;5.27;;;;;;;;;;778756;180;632953;-79
2023/01/15 03:10:06;;;;;;;7.10;4.80;;;;;;;;;;773299;181;615285;-80
2023/01/15 03:13:00;;;;;;;7.30;4.60;;;;;;;;;;779143;179;632788;-79
2023/01/15 03:15:04;;;;;;;9.07;4.50;;;;;;;;;;775120;179;629629;-80
2023/01/15 03:17:28;;;;;;;8.47;5.53;;;;;;;;;;777771;179;626011;-81
2023/01/15 03:19:57;;;;;;;6.80;4.90;;;;;;;;;;776445;179;647777;-79
2023/01/15 03:22:22;;;;;;;6.93;4.90;;;;;;;;;;779543;179;632443;-79
2023/01/15 03:24:51;;;;;;;8.53;5.10;;;;;;;;;;777976;177;640622;-81
2023/01/15 03:27:17;;;;;;;8.87;5.10;;;;;;;;;;786600;179;684036;-79
2023/01/15 03:29:46;;;;;;;9.07;4.77;;;;;;;;;;778552;179;633872;-82
2023/01/15 03:32:11;;;;;;;10.07;5.60;;;;;;;;;;775946;180;625958;-82
2023/01/15 03:34:52;;;;;;;8.57;4.47;;;;;;;;;;779518;177;641842;-80
2023/01/15 03:37:18;;;;;;;7.93;4.30;;;;;;;;;;770843;182;655897;-80
2023/01/15 03:39:44;;;;;;;7.10;4.40;;;;;;;;;;775472;179;693507;-81
2023/01/15 03:42:18;;;;;;;7.70;4.43;;;;;;;;;;774939;180;678694;-80
2023/01/15 03:44:44;;;;;;;9.53;6.30;;;;;;;;;;774953;179;657273;-79
2023/01/15 03:47:21;;;;;;;8.97;4.90;;;;;;;;;;779045;180;629063;-80
2023/01/15 03:49:50;;;;;;;7.17;4.53;;;;;;;;;;773224;180;633194;-79
2023/01/15 03:52:19;;;;;;;6.20;4.33;;;;;;;;;;775652;180;624546;-80
2023/01/15 03:54:49;;;;;;;7.53;4.97;;;;;;;;;;774495;176;761479;-81
2023/01/15 03:57:27;;;;;;;15.80;5.90;;;;;;;;;;774362;179;687669;-80
2023/01/15 03:59:52;;;;;;;10.60;5.10;;;;;;;;;;767530;182;638296;-80
2023/01/15 04:02:18;;;;;;;7.17;4.53;;;;;;;;;;773482;179;752545;-79
2023/01/15 04:04:44;;;;;;;8.53;4.83;;;;;;;;;;776849;179;635506;-80
2023/01/15 04:07:10;;;;;;;10.90;4.93;;;;;;;;;;773613;180;871198;-80
2023/01/15 04:09:36;;;;;;;7.97;4.90;;;;;;;;;;768585;180;622043;-79
2023/01/15 04:12:02;;;;;;;6.27;4.17;;;;;;;;;;775433;180;632859;-80
2023/01/15 04:14:28;;;;;;;8.67;4.80;;;;;;;;;;775518;176;613334;-79
2023/01/15 04:16:53;;;;;;;10.03;5.90;;;;;;;;;;779717;180;626484;-80
2023/01/15 04:19:19;;;;;;;8.37;4.60;;;;;;;;;;774135;178;635697;-80
2023/01/15 04:21:45;;;;;;;11.23;5.83;;;;;;;;;;774688;180;614475;-79
2023/01/15 04:24:11;;;;;;;9.20;4.53;;;;;;;;;;781391;179;677804;-79
2023/01/15 04:26:37;;;;;;;8.87;5.47;;;;;;;;;;777667;178;625252;-80
2023/01/15 04:29:03;;;;;;;7.07;4.67;;;;;;;;;;774893;178;628941;-79
2023/01/15 04:31:31;;;;;;;6.80;4.87;;;;;;;;;;775390;179;627974;-80
2023/01/15 04:33:55;;;;;;;8.33;4.70;;;;;;;;;;780781;179;628363;-80
2023/01/15 04:36:20;;;;;;;8.70;3.63;;;;;;;;;;779227;179;631910;-80
2023/01/15 04:38:46;;;;;;;8.55;5.97;;;;;;;;;;776847;179;713907;-80
2023/01/15 04:46:19;;;;;;;7.93;4.87;;;;;;;;;;776957;180;650286;-81
2023/01/15 04:48:45;;;;;;;5.40;3.80;;;;;;;;;;775647;176;774811;-80
2023/01/15 04:51:11;;;;;;;6.60;3.90;;;;;;;;;;778253;180;632332;-79
2023/01/15 04:53:37;;;;;;;7.80;3.70;;;;;;;;;;774706;179;650494;-79
2023/01/15 04:56:03;;;;;;;6.00;3.70;;;;;;;;;;779861;180;620743;-80
2023/01/15 04:58:29;;;;;;;7.60;4.10;;;;;;;;;;773325;181;616842;-80
2023/01/15 05:00:55;;;;;;;7.10;4.03;;;;;;;;;;774434;179;785709;-79
2023/01/15 05:03:21;;;;;;;6.40;4.00;;;;;;;;;;775328;178;725230;-79
2023/01/15 05:05:46;;;;;;;6.27;4.20;;;;;;;;;;775214;179;626837;-79
2023/01/15 05:08:12;;;;;;;9.43;4.50;;;;;;;;;;778964;179;700308;-79
2023/01/15 05:10:38;;;;;;;6.27;4.20;;;;;;;;;;774634;179;635622;-80
2023/01/15 05:13:04;;;;;;;5.87;3.87;;;;;;;;;;774026;179;771772;-80
2023/01/15 05:15:30;;;;;;;7.90;3.53;;;;;;;;;;781467;179;627869;-80
2023/01/15 05:17:56;;;;;;;8.33;3.93;;;;;;;;;;779016;179;638330;-82
2023/01/15 05:20:22;;;;;;;6.47;4.17;;;;;;;;;;777440;180;760163;-82
2023/01/15 05:22:47;;;;;;;5.13;3.50;;;;;;;;;;779434;179;678893;-80
2023/01/15 05:25:13;;;;;;;6.00;4.20;;;;;;;;;;776924;179;626269;-80
2023/01/15 05:27:39;;;;;;;6.53;3.90;;;;;;;;;;776267;179;638170;-79
2023/01/15 05:30:05;;;;;;;5.57;3.53;;;;;;;;;;773651;180;670431;-79
2023/01/15 05:32:31;;;;;;;7.57;3.50;;;;;;;;;;767252;182;624335;-80
2023/01/15 05:34:57;;;;;;;6.47;4.07;;;;;;;;;;777989;178;679130;-81
2023/01/15 05:37:23;;;;;;;4.30;3.50;;;;;;;;;;777238;179;740975;-81
2023/01/15 05:39:49;;;;;;;9.50;4.60;;;;;;;;;;781552;179;637174;-79
2023/01/15 05:42:15;;;;;;;6.30;3.20;;;;;;;;;;778451;179;627851;-80
2023/01/15 05:44:41;;;;;;;4.10;3.00;;;;;;;;;;778075;179;624488;-80
2023/01/15 05:47:06;;;;;;;5.93;3.13;;;;;;;;;;781193;179;619807;-81
2023/01/15 05:49:32;;;;;;;4.93;3.70;;;;;;;;;;776622;179;614875;-80
2023/01/15 05:51:59;;;;;;;7.07;4.13;;;;;;;;;;774186;180;635084;-81
2023/01/15 05:54:24;;;;;;;6.60;3.30;;;;;;;;;;776922;180;620368;-81
2023/01/15 05:56:50;;;;;;;7.17;4.00;;;;;;;;;;782896;180;703415;-79
2023/01/15 05:59:16;;;;;;;6.87;3.50;;;;;;;;;;777837;180;644446;-81
2023/01/15 06:01:42;;;;;;;6.17;3.40;;;;;;;;;;775889;180;633514;-80
2023/01/15 06:04:07;;;;;;;7.67;3.07;;;;;;;;;;781004;176;615524;-79
2023/01/15 06:06:34;;;;;;;7.73;3.43;;;;;;;;;;777438;179;622705;-79
2023/01/15 06:08:59;;;;;;;8.63;4.57;;;;;;;;;;775879;177;702986;-80
2023/01/15 06:11:25;;;;;;;4.63;3.07;;;;;;;;;;777500;180;807658;-81
2023/01/15 06:13:51;;;;;;;7.20;3.80;;;;;;;;;;775352;179;641046;-81
2023/01/15 06:16:17;;;;;;;6.30;3.83;;;;;;;;;;769084;179;1522748;-79
2023/01/15 06:18:42;;;;;;;5.00;3.03;;;;;;;;;;778973;177;630058;-79
2023/01/15 06:21:08;;;;;;;8.60;4.40;;;;;;;;;;772938;179;892283;-81
2023/01/15 06:23:35;;;;;;;6.10;3.83;;;;;;;;;;774085;179;636824;-81
2023/01/15 06:26:02;;;;;;;5.97;2.97;;;;;;;;;;776502;180;651150;-79
2023/01/15 06:28:27;;;;;;;6.87;3.00;;;;;;;;;;778600;179;626067;-78
2023/01/15 06:30:53;;;;;;;3.33;2.13;;;;;;;;;;774909;179;653498;-80
2023/01/15 06:33:19;;;;;;;6.93;3.60;;;;;;;;;;774214;178;902728;-78
2023/01/15 06:35:45;;;;;;;6.43;3.40;;;;;;;;;;779272;179;625233;-78
2023/01/15 06:38:11;;;;;;;5.10;2.85;;;;;;;;;;774736;178;650787;-79
2023/01/15 06:40:37;;;;;;;5.30;3.30;;;;;;;;;;771996;179;686363;-81
2023/01/15 06:48:07;;;;;;;4.33;2.60;;;;;;;;;;782292;178;625162;-79
2023/01/15 06:50:33;;;;;;;4.50;2.63;;;;;;;;;;777916;179;634387;-78
2023/01/15 06:52:59;;;;;;;5.57;3.23;;;;;;;;;;776363;179;623405;-80
2023/01/15 06:55:25;;;;;;;5.57;2.67;;;;;;;;;;767359;182;800307;-81
2023/01/15 06:57:51;;;;;;;6.70;3.17;;;;;;;;;;771651;179;1372040;-80
2023/01/15 07:00:17;;;;;;;4.87;2.93;;;;;;;;;;773281;179;923900;-80
2023/01/15 07:02:43;;;;;;;5.97;2.70;;;;;;;;;;780454;180;684226;-80
2023/01/15 07:05:09;;;;;;;4.40;2.47;;;;;;;;;;774940;179;730716;-79
2023/01/15 07:07:35;;;;;;;4.97;2.50;;;;;;;;;;773491;179;764992;-81
2023/01/15 07:10:01;;;;;;;4.47;2.73;;;;;;;;;;777863;179;1254744;-80
2023/01/15 07:12:27;;;;;;;7.03;3.23;;;;;;;;;;774644;179;655688;-80
2023/01/15 07:14:53;;;;;;;4.43;2.35;;;;;;;;;;777470;179;653307;-79
2023/01/15 07:17:19;;;;;;;3.90;2.50;;;;;;;;;;779846;180;629061;-81
2023/01/15 07:19:45;;;;;;;6.60;4.80;;;;;;;;;;772201;182;634311;-80
2023/01/15 07:22:11;;;;;;;5.03;2.70;;;;;;;;;;774081;179;620365;-81
2023/01/15 07:24:37;;;;;;;4.37;2.30;;;;;;;;;;775633;180;626658;-80
2023/01/15 07:27:03;;;;;;;5.00;2.63;;;;;;;;;;777923;180;641348;-79
2023/01/15 07:29:28;;;;;;;3.83;2.07;;;;;;;;;;776116;179;640026;-78
2023/01/15 07:31:54;;;;;;;5.20;3.23;;;;;;;;;;774583;179;641712;-80
2023/01/15 07:34:20;;;;;;;9.77;3.03;;;;;;;;;;779898;179;633370;-82
2023/01/15 07:36:46;;;;;;;5.17;2.97;;;;;;;;;;778710;179;652681;-80
2023/01/15 07:39:12;;;;;;;3.00;1.67;;;;;;;;;;776234;179;629330;-78
2023/01/15 07:51:44;;;;;;;5.47;3.10;;;;;;;;;;776396;180;632018;-79
2023/01/15 07:54:11;;;;;;;4.93;3.30;;;;;;;;;;778465;180;743928;-82
2023/01/15 07:56:37;;;;;;;5.87;3.20;;;;;;;;;;770042;179;1053826;-80
2023/01/15 07:59:03;;;;;;;3.37;2.13;;;;;;;;;;776649;178;629426;-78
2023/01/15 08:01:29;;;;;;;8.15;3.40;;;;;;;;;;778599;179;644566;-79
2023/01/15 08:03:55;;;;;;;5.00;3.00;;;;;;;;;;771258;179;619340;-79
2023/01/15 08:06:21;;;;;;;4.73;2.80;;;;;;;;;;779470;179;672773;-79
2023/01/15 08:08:47;;;;;;;3.73;2.10;;;;;;;;;;775568;180;645335;-80
2023/01/15 08:16:16;;;;;;;4.57;2.67;;;;;;;;;;780938;180;627754;-79
2023/01/15 08:18:41;;;;;;;5.63;2.83;;;;;;;;;;776061;176;656569;-79
2023/01/15 08:21:07;;;;;;;5.27;2.67;;;;;;;;;;772412;179;657940;-78
2023/01/15 08:23:34;;;;;;;4.97;2.73;;;;;;;;;;774233;179;629996;-82
2023/01/15 08:26:00;;;;;;;4.60;2.40;;;;;;;;;;776423;179;635279;-79
2023/01/15 08:28:26;;;;;;;4.50;2.53;;;;;;;;;;780589;179;638383;-78
2023/01/15 08:30:52;;;;;;;3.60;2.20;;;;;;;;;;769402;179;664428;-78
2023/01/15 08:33:17;;;;;;;6.23;2.63;;;;;;;;;;774752;180;628793;-79
2023/01/15 08:35:44;;;;;;;4.87;3.00;;;;;;;;;;777214;180;643930;-81
2023/01/15 08:38:10;;;;;;;5.07;2.70;;;;;;;;;;771155;180;616650;-80
2023/01/15 08:40:57;;;;;;;6.33;3.10;;;;;;;;;;775298;180;640658;-80
2023/01/15 08:43:01;;;;;;;4.90;2.80;;;;;;;;;;773044;180;630578;-80
2023/01/15 08:45:27;;;;;;;7.50;3.30;;;;;;;;;;781481;180;632782;-80
2023/01/15 08:47:54;;;;;;;7.20;3.17;;;;;;;;;;773468;180;646611;-80
2023/01/15 08:50:20;;;;;;;5.30;2.93;;;;;;;;;;768625;179;625632;-80
2023/01/15 08:52:46;;;;;;;11.03;2.43;;;;;;;;;;779805;180;648522;-79
2023/01/15 08:55:12;;;;;;;7.53;2.70;;;;;;;;;;777003;180;625806;-79
2023/01/15 08:57:38;;;;;;;4.20;2.57;;;;;;;;;;773712;180;646982;-81
2023/01/15 09:00:04;;;;;;;6.80;3.10;;;;;;;;;;772487;181;623901;-80
2023/01/15 09:02:30;;;;;;;5.67;3.00;;;;;;;;;;765594;182;616589;-79
2023/01/15 09:04:56;;;;;;;4.80;2.90;;;;;;;;;;768337;180;624978;-78
2023/01/15 09:07:22;;;;;;;5.37;3.10;;;;;;;;;;772618;179;624040;-80
2023/01/15 09:09:47;;;;;;;5.23;3.40;;;;;;;;;;784386;176;626549;-77
2023/01/15 09:12:13;;;;;;;9.50;3.43;;;;;;;;;;781627;179;638704;-79
2023/01/15 09:14:39;;;;;;;5.20;2.77;;;;;;;;;;778860;176;632540;-79
2023/01/15 09:17:05;;;;;;;6.67;3.73;;;;;;;;;;783246;179;642677;-80
2023/01/15 09:19:31;;;;;;;6.07;3.20;;;;;;;;;;778170;179;697557;-80
2023/01/15 09:21:57;;;;;;;7.17;2.73;;;;;;;;;;776563;180;639255;-81
2023/01/15 09:24:23;;;;;;;4.90;2.90;;;;;;;;;;778665;180;627027;-81
2023/01/15 09:26:51;;;;;;;8.60;2.47;;;;;;;;;;776789;180;628389;-78
2023/01/15 09:29:14;;;;;;;9.10;4.07;;;;;;;;;;774304;180;716716;-78
2023/01/15 09:31:40;;;;;;;7.37;2.90;;;;;;;;;;773365;180;636137;-78
2023/01/15 09:34:06;;;;;;;3.90;2.60;;;;;;;;;;781915;180;638905;-81
2023/01/15 09:36:32;;;;;;;6.77;3.93;;;;;;;;;;779015;179;639560;-79
2023/01/15 09:38:58;;;;;;;5.00;2.60;;;;;;;;;;780245;177;637321;-80
2023/01/15 09:43:55;;;;;;;4.17;2.70;;;;;;;;;;779788;176;676735;-81
2023/01/15 09:46:21;;;;;;;6.83;2.80;;;;;;;;;;775496;180;631546;-80
2023/01/15 09:48:47;;;;;;;6.50;2.80;;;;;;;;;;773357;179;740963;-79
2023/01/15 09:51:28;;;;;;;9.90;3.37;;;;;;;;;;779614;179;644024;-79
2023/01/15 09:53:54;;;;;;;5.13;3.10;;;;;;;;;;783733;180;645194;-79
2023/01/15 09:56:19;;;;;;;5.00;2.77;;;;;;;;;;768869;181;652701;-79
2023/01/15 09:58:45;;;;;;;5.93;2.80;;;;;;;;;;753348;184;660988;-81
2023/01/15 10:01:12;;;;;;;5.60;3.17;;;;;;;;;;753395;186;639753;-80
2023/01/15 10:03:38;;;;;;;5.80;3.97;;;;;;;;;;776010;179;632433;-81
2023/01/15 10:06:07;;;;;;;6.13;3.37;;;;;;;;;;774470;180;653048;-79
2023/01/15 10:08:32;;;;;;;5.50;2.70;;;;;;;;;;779971;179;618192;-81
2023/01/15 10:10:58;;;;;;;5.57;3.37;;;;;;;;;;780049;179;622755;-80
2023/01/15 10:13:44;;;;;;;6.73;3.10;;;;;;;;;;776198;179;636088;-81
2023/01/15 10:16:10;;;;;;;6.40;3.63;;;;;;;;;;774773;179;630650;-80
2023/01/15 10:18:36;;;;;;;6.40;3.90;;;;;;;;;;777266;180;625126;-81
2023/01/15 10:21:04;;;;;;;7.33;3.93;;;;;;;;;;781816;180;623867;-79
2023/01/15 10:23:28;;;;;;;11.87;5.60;;;;;;;;;;777768;178;642320;-80
2023/01/15 10:25:54;;;;;;;8.17;3.83;;;;;;;;;;777168;179;630354;-80
2023/01/15 10:28:21;;;;;;;5.90;3.53;;;;;;;;;;775856;177;636780;-82
2023/01/15 10:30:47;;;;;;;49.13;19.80;;;;;;;;;;774600;179;658399;-80
2023/01/15 10:33:13;;;;;;;5.53;4.10;;;;;;;;;;775144;178;706227;-80
2023/01/15 10:35:40;;;;;;;7.90;3.37;;;;;;;;;;777307;180;683040;-82
2023/01/15 10:38:11;;;;;;;6.33;4.10;;;;;;;;;;778484;179;646753;-79
2023/01/15 10:40:41;;;;;;;7.20;3.27;;;;;;;;;;777975;179;644586;-81
2023/01/15 10:43:13;;;;;;;6.70;4.60;;;;;;;;;;777888;177;638403;-80
2023/01/15 10:45:40;;;;;;;6.50;3.28;;;;;;;;;;772203;180;1185164;-80
2023/01/15 10:48:08;;;;;;;10.53;6.37;;;;;;;;;;777342;180;767322;-82
2023/01/15 10:50:34;;;;;;;6.27;3.60;;;;;;;;;;779181;179;624765;-79
2023/01/15 10:53:02;;;;;;;5.97;3.70;;;;;;;;;;779953;180;633670;-80
2023/01/15 10:55:28;;;;;;;6.53;4.10;;;;;;;;;;779614;179;636415;-79
2023/01/15 10:57:54;;;;;;;6.07;3.40;;;;;;;;;;783436;179;613978;-83
2023/01/15 11:00:21;;;;;;;9.03;3.63;;;;;;;;;;776356;180;656587;-79
2023/01/15 11:02:46;;;;;;;5.07;2.97;;;;;;;;;;778043;180;660279;-81
2023/01/15 11:05:12;;;;;;;5.90;3.57;;;;;;;;;;782267;180;626722;-79
2023/01/15 11:07:39;;;;;;;7.47;3.97;;;;;;;;;;768351;181;642609;-82
2023/01/15 11:10:05;;;;;;;6.03;3.57;;;;;;;;;;773829;179;640677;-82
2023/01/15 11:20:13;;;;;;;5.50;3.53;;;;;;;;;;774867;179;635177;-81
2023/01/15 11:22:39;;;;;;;5.77;4.10;;;;;;;;;;774418;179;646007;-80
2023/01/15 11:25:07;;;;;;;6.23;3.73;;;;;;;;;;777451;179;633505;-81
2023/01/15 11:27:32;;;;;;;6.43;4.47;;;;;;;;;;775621;179;634967;-81
2023/01/15 11:29:57;;;;;;;6.10;3.43;;;;;;;;;;775409;177;633874;-80
2023/01/15 11:32:28;;;;;;;6.13;4.00;;;;;;;;;;776651;177;1298522;-80
2023/01/15 11:34:54;;;;;;;7.63;3.50;;;;;;;;;;785835;176;633697;-79
2023/01/15 11:37:20;;;;;;;6.40;4.20;;;;;;;;;;779353;179;629084;-80
2023/01/15 11:39:54;;;;;;;8.00;4.17;;;;;;;;;;776901;177;844676;-80
2023/01/15 11:52:27;;;;;;;6.87;4.33;;;;;;;;;;776575;179;773902;-79
2023/01/15 11:54:53;;;;;;;4.27;3.00;;;;;;;;;;779184;179;694235;-80
2023/01/15 11:57:30;;;;;;;5.40;3.77;;;;;;;;;;776363;179;660761;-80
2023/01/15 11:59:56;;;;;;;8.67;4.30;;;;;;;;;;775063;179;815878;-80
2023/01/15 12:02:23;;;;;;;7.80;4.80;;;;;;;;;;774899;180;830845;-80
2023/01/15 12:04:51;;;;;;;10.73;5.43;;;;;;;;;;777912;179;798708;-79
2023/01/15 12:07:17;;;;;;;6.27;3.70;;;;;;;;;;758264;183;642441;-80
2023/01/15 12:09:45;;;;;;;6.60;4.07;;;;;;;;;;774218;178;656466;-81
2023/01/15 12:12:15;;;;;;;8.53;4.30;;;;;;;;;;775044;179;642438;-80
2023/01/15 12:17:32;;;;;;;10.73;4.20;;;;;;;;;;723034;175;757224;-79
2023/01/15 12:20:13;;;;;;;4.90;2.87;;;;;;;;;;769354;180;628016;-79
2023/01/15 12:22:39;;;;;;;7.03;4.23;;;;;;;;;;763138;183;1036117;-78
2023/01/15 12:25:10;;;;;;;7.73;4.50;;;;;;;;;;761385;181;731582;-79
2023/01/15 12:27:41;;;;;;;5.80;4.00;;;;;;;;;;756206;182;1298834;-79
2023/01/15 12:30:15;;;;;;;7.70;4.00;;;;;;;;;;761734;181;750754;-80
2023/01/15 12:32:41;;;;;;;6.67;4.10;;;;;;;;;;760508;184;636080;-79
2023/01/15 12:35:07;;;;;;;8.73;4.37;;;;;;;;;;762556;181;636182;-79
2023/01/15 12:37:34;;;;;;;6.77;3.83;;;;;;;;;;762585;183;633755;-80
2023/01/15 12:40:06;;;;;;;6.85;4.03;;;;;;;;;;765184;183;1092939;-79
2023/01/15 12:45:07;;;;;;;8.10;3.97;;;;;;;;;;751545;183;854945;-80
2023/01/15 12:47:34;;;;;;;7.10;3.92;;;;;;;;;;763474;183;687750;-79
2023/01/15 12:50:04;;;;;;;6.47;3.90;;;;;;;;;;764778;183;658899;-80
2023/01/15 12:52:29;;;;;;;8.60;3.53;;;;;;;;;;767825;182;653853;-82
2023/01/15 12:54:57;;;;;;;5.60;3.77;;;;;;;;;;764267;183;634235;-79
2023/01/15 12:57:29;;;;;;;6.80;4.03;;;;;;;;;;765220;181;620913;-80
2023/01/15 12:59:56;;;;;;;87.73;45.73;;;;;;;;;;751251;183;640130;-80
2023/01/15 13:02:28;;;;;;;12.87;7.27;;;;;;;;;;760181;183;652257;-80
2023/01/15 13:04:58;;;;;;;229.97;142.13;;;;;;;;;;757328;183;637469;-80
2023/01/15 13:07:25;;;;;;;16.70;12.70;;;;;;;;;;762904;183;679602;-80
2023/01/15 13:09:54;;;;;;;58.93;37.90;;;;;;;;;;763448;180;635303;-82
2023/01/15 13:12:20;;;;;;;20.07;15.20;;;;;;;;;;768032;183;643345;-80
2023/01/15 13:14:46;;;;;;;14.83;11.43;;;;;;;;;;761982;183;678025;-80
2023/01/15 13:17:16;;;;;;;31.40;19.17;;;;;;;;;;762179;183;660867;-79
2023/01/15 13:19:45;;;;;;;29.17;18.27;;;;;;;;;;763571;183;628950;-79
2023/01/15 13:22:10;;;;;;;23.43;17.07;;;;;;;;;;760244;183;614035;-80
2023/01/15 13:24:43;;;;;;;6.03;4.40;;;;;;;;;;744126;185;641437;-80
2023/01/15 13:27:09;;;;;;;5.70;4.30;;;;;;;;;;759121;181;745827;-80
2023/01/15 13:29:36;;;;;;;9.80;4.30;;;;;;;;;;766287;183;653836;-81
2023/01/15 13:32:05;;;;;;;8.37;5.00;;;;;;;;;;767310;182;629071;-81
2023/01/15 13:34:32;;;;;;;12.60;7.47;;;;;;;;;;770238;181;660961;-79
2023/01/15 13:36:58;;;;;;;7.30;4.43;;;;;;;;;;767369;181;644198;-81
2023/01/15 13:39:24;;;;;;;62.23;33.00;;;;;;;;;;768123;183;645904;-80
2023/01/15 13:44:23;;;;;;;16.73;11.67;;;;;;;;;;756931;183;633529;-80
2023/01/15 13:46:48;;;;;;;11.37;8.83;;;;;;;;;;739480;187;649878;-80
2023/01/15 13:49:16;;;;;;;13.00;8.97;;;;;;;;;;756859;183;623468;-79
2023/01/15 13:51:43;;;;;;;42.53;27.80;;;;;;;;;;749550;183;628581;-80
2023/01/15 13:54:09;;;;;;;45.53;27.37;;;;;;;;;;762610;180;617927;-81
2023/01/15 13:56:35;;;;;;;103.13;70.53;;;;;;;;;;767704;181;632249;-80
2023/01/15 13:59:01;;;;;;;34.87;24.73;;;;;;;;;;764969;182;641867;-80
2023/01/15 14:01:32;;;;;;;55.67;32.10;;;;;;;;;;763491;182;685903;-80
2023/01/15 14:04:01;;;;;;;47.37;30.87;;;;;;;;;;748694;186;669074;-81
2023/01/15 14:06:32;;;;;;;64.53;40.00;;;;;;;;;;761344;183;634282;-81
2023/01/15 14:08:58;;;;;;;27.93;15.67;;;;;;;;;;759528;183;643026;-82
2023/01/15 14:11:42;;;;;;;11.23;6.33;;;;;;;;;;752507;183;646565;-78
2023/01/15 14:14:23;;;;;;;13.10;7.17;;;;;;;;;;764802;181;707372;-80
2023/01/15 14:16:55;;;;;;;7.57;5.43;;;;;;;;;;744069;183;731630;-80
2023/01/15 14:19:22;;;;;;;7.10;5.20;;;;;;;;;;752671;182;2249913;-81
2023/01/15 14:21:52;;;;;;;8.50;5.20;;;;;;;;;;768059;183;636687;-80
2023/01/15 14:24:19;;;;;;;7.13;4.17;;;;;;;;;;771045;181;616301;-79
2023/01/15 14:26:44;;;;;;;6.53;4.30;;;;;;;;;;763768;183;668736;-80
2023/01/15 14:29:18;;;;;;;8.57;5.30;;;;;;;;;;765411;181;645671;-79
2023/01/15 14:31:45;;;;;;;6.30;4.90;;;;;;;;;;765365;182;634585;-80
2023/01/15 14:34:15;;;;;;;7.53;5.37;;;;;;;;;;761347;183;617669;-80
2023/01/15 14:36:58;;;;;;;6.90;5.30;;;;;;;;;;762971;183;625511;-79
2023/01/15 14:39:23;;;;;;;13.03;9.53;;;;;;;;;;756634;183;1673436;-79
2023/01/15 14:44:26;;;;;;;29.50;20.53;;;;;;;;;;768330;183;636466;-81
2023/01/15 14:46:52;;;;;;;27.67;17.27;;;;;;;;;;761754;183;632405;-79
2023/01/15 14:49:24;;;;;;;20.37;14.93;;;;;;;;;;746497;183;857136;-79
2023/01/15 14:51:50;;;;;;;10.05;5.25;;;;;;;;;;757624;183;917903;-79
2023/01/15 14:54:17;;;;;;;9.03;5.73;;;;;;;;;;767967;183;664753;-79
2023/01/15 14:56:42;;;;;;;6.63;4.80;;;;;;;;;;760167;183;645110;-79
2023/01/15 14:59:09;;;;;;;8.70;4.80;;;;;;;;;;762170;183;643333;-80
2023/01/15 15:01:35;;;;;;;6.87;4.80;;;;;;;;;;752008;185;636535;-79
2023/01/15 15:04:08;;;;;;;12.00;4.63;;;;;;;;;;756129;183;616817;-80
2023/01/15 15:06:34;;;;;;;10.50;5.77;;;;;;;;;;750043;181;625943;-80
2023/01/15 15:09:00;;;;;;;9.10;5.70;;;;;;;;;;742229;187;647336;-79
2023/01/15 15:13:59;;;;;;;8.50;5.30;;;;;;;;;;766451;180;644825;-79
2023/01/15 15:16:25;;;;;;;10.53;6.10;;;;;;;;;;761996;182;653651;-80
2023/01/15 15:18:53;;;;;;;8.90;5.23;;;;;;;;;;761970;181;625364;-80
2023/01/15 15:21:18;;;;;;;6.97;4.67;;;;;;;;;;765560;183;950163;-79
2023/01/15 15:23:44;;;;;;;6.73;4.33;;;;;;;;;;765544;181;622462;-81
2023/01/15 15:26:15;;;;;;;7.10;4.90;;;;;;;;;;763517;181;803202;-80
2023/01/15 15:28:41;;;;;;;7.23;3.90;;;;;;;;;;758761;183;1620933;-79